createdAt,value
2022-09-03T00:01:16.984Z,93.43
2022-09-03T00:03:52.863Z,92.44
2022-09-03T00:06:30.715Z,91.68
2022-09-03T00:09:42.875Z,92.21
2022-09-03T00:12:22.394Z,91.90
2022-09-03T00:15:05.947Z,91.00
2022-09-03T00:17:57.557Z,92.87
2022-09-03T00:20:33.311Z,93.50
2022-09-03T00:23:06.214Z,92.95
2022-09-03T00:25:40.262Z,93.05
2022-09-03T00:28:24.723Z,91.70
2022-09-03T00:31:02.712Z,92.27
2022-09-03T00:33:34.148Z,91.98
2022-09-03T00:36:02.379Z,92.37
2022-09-03T00:38:30.969Z,93.64
2022-09-03T00:41:07.227Z,94.99
2022-09-03T00:43:48.075Z,94.94
2022-09-03T00:46:42.870Z,95.18
2022-09-03T00:49:44.540Z,93.43
2022-09-03T00:52:38.566Z,92.69
2022-09-03T00:55:28.334Z,94.35
2022-09-03T00:58:17.849Z,92.98
2022-09-03T01:00:46.238Z,92.51
2022-09-03T01:03:39.542Z,92.95
2022-09-03T01:06:20.587Z,92.98
2022-09-03T01:09:12.466Z,92.47
2022-09-03T01:12:03.987Z,92.13
2022-09-03T01:14:48.811Z,92.31
2022-09-03T01:17:34.181Z,92.16
2022-09-03T01:20:37.263Z,91.98
2022-09-03T01:23:47.188Z,91.29
2022-09-03T01:26:33.410Z,92.53
2022-09-03T01:29:12.592Z,93.54
2022-09-03T01:31:58.940Z,93.58
2022-09-03T01:34:48.495Z,92.25
2022-09-03T01:37:41.750Z,92.58
2022-09-03T01:40:36.715Z,92.46
2022-09-03T01:43:36.893Z,92.43
2022-09-03T01:46:14.044Z,91.51
2022-09-03T01:48:54.412Z,91.83
2022-09-03T01:51:28.151Z,92.63
2022-09-03T01:54:21.506Z,91.64
2022-09-03T01:57:36.598Z,91.56
2022-09-03T02:00:12.571Z,92.27
2022-09-03T02:02:43.829Z,92.52
2022-09-03T02:05:16.045Z,92.82
2022-09-03T02:07:43.819Z,92.95
2022-09-03T02:10:20.225Z,92.30
2022-09-03T02:13:05.052Z,92.58
2022-09-03T02:15:36.342Z,91.49
2022-09-03T02:18:09.470Z,91.79
2022-09-03T02:20:38.921Z,92.99
2022-09-03T02:23:06.890Z,92.70
2022-09-03T02:25:42.145Z,93.10
2022-09-03T02:28:17.462Z,93.53
2022-09-03T02:30:46.275Z,93.63
2022-09-03T02:33:14.669Z,93.79
2022-09-03T02:35:43.369Z,94.14
2022-09-03T02:38:22.864Z,96.41
2022-09-03T02:40:50.747Z,94.49
2022-09-03T02:43:25.962Z,96.53
2022-09-03T02:46:00.278Z,95.70
2022-09-03T02:48:28.911Z,96.23
2022-09-03T02:50:56.709Z,95.90
2022-09-03T02:53:24.610Z,94.61
2022-09-03T02:55:52.753Z,93.93
2022-09-03T02:58:20.538Z,94.58
2022-09-03T03:00:49.658Z,95.80
2022-09-03T03:03:18.172Z,95.20
2022-09-03T03:05:47.500Z,95.15
2022-09-03T03:08:17.382Z,95.19
2022-09-03T03:10:45.556Z,94.08
2022-09-03T03:13:14.556Z,93.27
2022-09-03T03:15:43.130Z,93.49
2022-09-03T03:18:14.739Z,92.20
2022-09-03T03:20:42.730Z,92.07
2022-09-03T03:23:11.397Z,92.63
2022-09-03T03:25:40.541Z,91.00
2022-09-03T03:28:08.762Z,91.33
2022-09-03T03:30:40.556Z,91.97
2022-09-03T03:33:10.384Z,91.24
2022-09-03T03:35:38.278Z,89.95
2022-09-03T03:38:06.071Z,91.31
2022-09-03T03:40:35.163Z,92.59
2022-09-03T03:43:03.013Z,91.59
2022-09-03T03:45:30.857Z,90.97
2022-09-03T03:47:59.767Z,91.17
2022-09-03T03:50:28.303Z,90.66
2022-09-03T03:53:00.124Z,91.06
2022-09-03T03:55:28.383Z,91.08
2022-09-03T03:58:00.348Z,90.45
2022-09-03T04:00:28.858Z,90.20
2022-09-03T04:02:57.075Z,91.20
2022-09-03T04:05:24.933Z,90.06
2022-09-03T04:07:52.750Z,88.21
2022-09-03T04:10:20.951Z,89.57
2022-09-03T04:12:48.730Z,90.12
2022-09-03T04:15:16.571Z,89.23
2022-09-03T04:17:44.785Z,90.75
2022-09-03T04:20:12.639Z,90.20
2022-09-03T04:22:40.447Z,88.75
2022-09-03T04:25:09.123Z,89.90
2022-09-03T04:27:37.894Z,89.22
2022-09-03T04:30:06.196Z,89.45
2022-09-03T04:32:52.724Z,88.92
2022-09-03T04:35:26.143Z,88.24
2022-09-03T04:37:55.536Z,88.98
2022-09-03T04:40:23.428Z,87.56
2022-09-03T04:42:52.668Z,88.58
2022-09-03T04:45:20.869Z,87.50
2022-09-03T04:48:05.333Z,87.11
2022-09-03T04:50:35.856Z,84.99
2022-09-03T04:53:08.022Z,86.89
2022-09-03T04:55:38.088Z,86.15
2022-09-03T04:58:08.301Z,88.18
2022-09-03T05:00:39.714Z,85.87
2022-09-03T05:03:07.651Z,87.14
2022-09-03T05:05:35.626Z,87.52
2022-09-03T05:08:04.532Z,85.95
2022-09-03T05:10:32.953Z,86.13
2022-09-03T05:13:05.835Z,87.32
2022-09-03T05:15:34.035Z,86.56
2022-09-03T05:18:03.598Z,85.60
2022-09-03T05:20:33.064Z,84.12
2022-09-03T05:23:04.574Z,84.96
2022-09-03T05:25:32.605Z,83.59
2022-09-03T05:28:02.163Z,84.00
2022-09-03T05:30:30.582Z,85.19
2022-09-03T05:32:58.477Z,85.50
2022-09-03T05:35:30.113Z,83.60
2022-09-03T05:37:59.928Z,84.21
2022-09-03T05:40:27.922Z,83.75
2022-09-03T05:42:58.893Z,84.79
2022-09-03T05:45:27.116Z,82.93
2022-09-03T05:47:54.855Z,81.84
2022-09-03T05:50:22.691Z,80.96
2022-09-03T05:52:50.751Z,80.12
2022-09-03T05:55:18.454Z,73.70
2022-09-03T05:57:52.862Z,76.44
2022-09-03T06:00:21.393Z,76.24
2022-09-03T06:02:54.104Z,79.55
2022-09-03T06:05:22.094Z,78.83
2022-09-03T06:07:50.297Z,78.01
2022-09-03T06:10:21.242Z,69.26
2022-09-03T06:12:52.485Z,78.74
2022-09-03T06:15:20.279Z,76.58
2022-09-03T06:17:48.242Z,76.10
2022-09-03T06:20:16.493Z,80.17
2022-09-03T06:22:49.499Z,78.89
2022-09-03T06:25:17.699Z,65.44
2022-09-03T06:27:46.240Z,81.24
2022-09-03T06:30:15.655Z,78.99
2022-09-03T06:32:47.803Z,74.03
2022-09-03T06:35:16.017Z,73.32
2022-09-03T06:37:44.390Z,76.11
2022-09-03T06:40:20.868Z,77.79
2022-09-03T06:43:02.766Z,68.94
2022-09-03T06:45:31.437Z,62.06
2022-09-03T06:47:59.713Z,72.96
2022-09-03T06:50:31.319Z,66.88
2022-09-03T06:53:02.177Z,67.34
2022-09-03T06:55:30.000Z,74.31
2022-09-03T06:58:00.552Z,69.73
2022-09-03T07:00:29.104Z,68.68
2022-09-03T07:03:00.080Z,59.03
2022-09-03T07:05:29.048Z,69.85
2022-09-03T07:07:57.264Z,71.84
2022-09-03T07:10:26.455Z,71.66
2022-09-03T07:12:56.270Z,67.74
2022-09-03T07:15:24.447Z,69.45
2022-09-03T07:17:52.208Z,65.50
2022-09-03T07:20:20.897Z,58.84
2022-09-03T07:22:49.123Z,59.54
2022-09-03T07:25:17.017Z,73.89
2022-09-03T07:27:44.825Z,60.55
2022-09-03T07:30:13.395Z,61.89
2022-09-03T07:32:41.298Z,70.64
2022-09-03T07:35:09.334Z,66.46
2022-09-03T07:37:44.400Z,64.25
2022-09-03T07:40:12.490Z,56.70
2022-09-03T07:42:40.782Z,57.15
2022-09-03T07:45:13.166Z,50.34
2022-09-03T07:47:49.847Z,57.20
2022-09-03T07:50:17.711Z,68.58
2022-09-03T07:52:45.934Z,59.98
2022-09-03T07:55:15.014Z,58.59
2022-09-03T07:57:42.948Z,50.19
2022-09-03T08:00:13.125Z,53.88
2022-09-03T08:02:45.937Z,65.27
2022-09-03T08:05:14.125Z,59.51
2022-09-03T08:07:42.370Z,47.35
2022-09-03T08:10:10.918Z,65.03
2022-09-03T08:12:38.830Z,58.74
2022-09-03T08:15:08.813Z,57.04
2022-09-03T08:17:36.684Z,57.72
2022-09-03T08:20:05.353Z,59.90
2022-09-03T08:22:34.432Z,44.05
2022-09-03T08:25:02.391Z,58.92
2022-09-03T08:27:32.467Z,41.94
2022-09-03T08:30:04.885Z,41.76
2022-09-03T08:35:18.237Z,59.41
2022-09-03T08:37:46.221Z,57.71
2022-09-03T08:40:14.656Z,41.83
2022-09-03T08:43:17.699Z,51.96
2022-09-03T08:45:46.083Z,47.92
2022-09-03T08:51:07.880Z,40.22
2022-09-03T08:53:49.573Z,41.68
2022-09-03T08:56:31.858Z,47.87
2022-09-03T08:59:01.936Z,54.33
2022-09-03T09:01:57.862Z,56.42
2022-09-03T09:04:42.481Z,40.22
2022-09-03T09:07:40.453Z,47.18
2022-09-03T09:10:25.475Z,53.08
2022-09-03T09:13:07.464Z,44.43
2022-09-03T09:15:50.567Z,53.95
2022-09-03T09:18:49.525Z,45.71
2022-09-03T09:24:22.270Z,56.41
2022-09-03T09:26:59.341Z,35.62
2022-09-03T09:29:34.313Z,36.61
2022-09-03T09:34:51.960Z,45.84
2022-09-03T09:37:24.860Z,32.90
2022-09-03T09:40:01.989Z,38.55
2022-09-03T09:42:32.029Z,34.12
2022-09-03T09:45:10.467Z,33.65
2022-09-03T09:47:40.912Z,33.54
2022-09-03T09:50:24.913Z,41.67
2022-09-03T09:53:08.978Z,55.79
2022-09-03T09:55:39.343Z,43.54
2022-09-03T09:58:14.291Z,50.64
2022-09-03T10:00:43.162Z,57.44
2022-09-03T10:03:14.093Z,45.21
2022-09-03T10:05:44.170Z,58.23
2022-09-03T10:08:22.386Z,47.64
2022-09-03T10:10:51.414Z,40.99
2022-09-03T10:13:41.507Z,42.89
2022-09-03T10:16:16.650Z,51.87
2022-09-03T10:19:06.867Z,50.27
2022-09-03T10:24:47.345Z,36.29
2022-09-03T10:27:18.218Z,34.78
2022-09-03T10:29:46.624Z,38.59
2022-09-03T10:32:38.831Z,36.66
2022-09-03T10:35:31.802Z,37.67
2022-09-03T10:38:16.318Z,46.26
2022-09-03T10:41:03.443Z,38.36
2022-09-03T10:44:01.786Z,39.21
2022-09-03T10:46:41.375Z,39.58
2022-09-03T10:49:42.210Z,40.98
2022-09-03T10:52:20.108Z,41.93
2022-09-03T10:58:06.430Z,36.73
2022-09-03T11:00:40.455Z,43.54
2022-09-03T11:03:39.392Z,37.08
2022-09-03T11:06:30.950Z,38.28
2022-09-03T11:09:12.166Z,40.09
2022-09-03T11:11:48.069Z,56.21
2022-09-03T11:14:33.057Z,49.30
2022-09-03T11:17:10.049Z,52.58
2022-09-03T11:19:48.523Z,55.02
2022-09-03T11:25:07.573Z,43.19
2022-09-03T11:27:56.958Z,44.61
2022-09-03T11:31:15.471Z,45.60
2022-09-03T11:33:54.247Z,56.42
2022-09-03T11:36:31.907Z,47.11
2022-09-03T11:39:00.902Z,42.86
2022-09-03T11:41:38.362Z,55.61
2022-09-03T11:44:20.546Z,47.29
2022-09-03T11:46:59.553Z,45.80
2022-09-03T11:49:33.753Z,44.65
2022-09-03T11:52:06.934Z,35.25
2022-09-03T11:54:43.973Z,33.54
2022-09-03T11:57:15.152Z,35.93
2022-09-03T11:59:44.899Z,35.25
2022-09-03T12:02:28.354Z,39.98
2022-09-03T12:05:13.173Z,35.86
2022-09-03T12:08:08.984Z,49.23
2022-09-03T12:11:00.346Z,49.99
2022-09-03T12:14:07.022Z,49.98
2022-09-03T12:17:04.530Z,55.55
2022-09-03T12:19:52.548Z,45.66
2022-09-03T12:22:23.800Z,54.18
2022-09-03T12:24:52.255Z,37.72
2022-09-03T12:27:24.720Z,38.63
2022-09-03T12:30:03.414Z,38.53
2022-09-03T12:32:38.582Z,47.63
2022-09-03T12:38:26.246Z,49.73
2022-09-03T12:43:52.178Z,39.60
2022-09-03T12:46:33.175Z,50.09
2022-09-03T12:52:16.648Z,32.78
2022-09-03T12:54:50.458Z,29.99
2022-09-03T12:57:24.176Z,29.29
2022-09-03T12:59:58.535Z,29.83
2022-09-03T13:02:40.725Z,28.54
2022-09-03T13:05:17.914Z,28.06
2022-09-03T13:07:53.252Z,30.63
2022-09-03T13:10:29.443Z,28.62
2022-09-03T13:13:18.954Z,28.81
2022-09-03T13:16:25.080Z,28.39
2022-09-03T13:19:06.679Z,27.31
2022-09-03T13:21:45.493Z,30.01
2022-09-03T13:24:29.025Z,28.80
2022-09-03T13:27:18.527Z,27.70
2022-09-03T13:29:55.753Z,28.33
2022-09-03T13:32:28.733Z,29.31
2022-09-03T13:35:23.435Z,31.96
2022-09-03T13:38:37.064Z,28.34
2022-09-03T13:41:22.291Z,27.19
2022-09-03T13:44:19.581Z,26.06
2022-09-03T13:47:02.706Z,26.04
2022-09-03T13:50:04.399Z,26.13
2022-09-03T13:52:43.312Z,25.87
2022-09-03T13:55:26.510Z,25.74
2022-09-03T14:00:59.766Z,24.92
2022-09-03T14:03:32.819Z,24.61
2022-09-03T14:06:08.162Z,24.62
2022-09-03T14:08:58.646Z,24.11
2022-09-03T14:11:49.467Z,26.89
2022-09-03T14:14:51.139Z,27.82
2022-09-03T14:17:49.375Z,26.94
2022-09-03T14:23:38.748Z,25.24
2022-09-03T14:26:15.695Z,24.42
2022-09-03T14:28:59.097Z,28.37
2022-09-03T14:31:37.007Z,29.72
2022-09-03T14:34:17.029Z,30.13
2022-09-03T14:37:33.125Z,32.03
2022-09-03T14:40:18.805Z,30.44
2022-09-03T14:43:05.103Z,28.03
2022-09-03T14:45:56.934Z,26.91
2022-09-03T14:48:49.580Z,25.63
2022-09-03T14:51:50.147Z,25.79
2022-09-03T14:54:28.736Z,25.65
2022-09-03T15:03:29.010Z,26.29
2022-09-03T15:06:31.343Z,27.20
2022-09-03T15:09:28.112Z,27.90
2022-09-03T15:12:01.135Z,28.17
2022-09-03T15:14:58.236Z,30.25
2022-09-03T15:17:47.431Z,32.07
2022-09-03T15:20:33.214Z,34.93
2022-09-03T15:23:12.401Z,35.26
2022-09-03T15:25:53.014Z,37.70
2022-09-03T15:28:54.841Z,38.32
2022-09-03T15:31:43.607Z,43.73
2022-09-03T15:34:24.992Z,47.87
2022-09-03T15:36:55.935Z,48.80
2022-09-03T15:39:28.407Z,50.68
2022-09-03T15:42:32.197Z,51.06
2022-09-03T15:45:14.361Z,52.99
2022-09-03T15:47:56.429Z,53.56
2022-09-03T15:50:35.965Z,54.03
2022-09-03T15:53:35.585Z,54.79
2022-09-03T15:56:25.358Z,55.93
2022-09-03T15:59:13.090Z,57.21
2022-09-03T16:02:15.545Z,56.89
2022-09-03T16:05:06.307Z,57.40
2022-09-03T16:08:03.402Z,58.62
2022-09-03T16:11:09.413Z,58.21
2022-09-03T16:13:55.097Z,57.14
2022-09-03T16:16:31.315Z,56.71
2022-09-03T16:19:11.547Z,56.57
2022-09-03T16:21:52.569Z,55.55
2022-09-03T16:24:45.082Z,55.11
2022-09-03T16:30:34.516Z,54.04
2022-09-03T16:33:19.361Z,54.25
2022-09-03T16:35:53.255Z,55.25
2022-09-03T16:38:54.167Z,56.57
2022-09-03T16:41:43.698Z,56.63
2022-09-03T16:44:29.336Z,57.78
2022-09-03T16:47:05.933Z,61.69
2022-09-03T16:49:39.795Z,63.39
2022-09-03T16:52:12.843Z,63.52
2022-09-03T16:54:57.374Z,60.39
2022-09-03T16:58:13.325Z,59.98
2022-09-03T17:01:14.260Z,60.62
2022-09-03T17:04:08.427Z,59.27
2022-09-03T17:07:04.461Z,59.69
2022-09-03T17:10:01.488Z,60.56
2022-09-03T17:12:39.062Z,61.78
2022-09-03T17:15:32.838Z,64.20
2022-09-03T17:18:22.130Z,62.54
2022-09-03T17:21:14.573Z,64.15
2022-09-03T17:23:51.613Z,66.23
2022-09-03T17:26:35.691Z,65.07
2022-09-03T17:29:29.275Z,64.46
2022-09-03T17:32:36.717Z,63.82
2022-09-03T17:35:15.162Z,62.97
2022-09-03T17:38:20.051Z,62.89
2022-09-03T17:41:23.088Z,63.03
2022-09-03T17:43:59.768Z,62.94
2022-09-03T17:46:36.367Z,62.74
2022-09-03T17:49:08.894Z,63.17
2022-09-03T17:51:46.590Z,63.62
2022-09-03T17:54:44.837Z,64.38
2022-09-03T17:57:13.554Z,64.35
2022-09-03T18:00:00.722Z,64.76
2022-09-03T18:02:36.731Z,64.62
2022-09-03T18:05:24.299Z,65.88
2022-09-03T18:08:24.434Z,65.67
2022-09-03T18:11:27.572Z,64.57
2022-09-03T18:13:59.078Z,64.75
2022-09-03T18:16:29.988Z,65.42
2022-09-03T18:19:18.606Z,65.73
2022-09-03T18:22:08.429Z,67.20
2022-09-03T18:25:13.067Z,68.91
2022-09-03T18:28:07.146Z,73.78
2022-09-03T18:30:53.768Z,75.79
2022-09-03T18:33:46.264Z,76.02
2022-09-03T18:36:34.009Z,76.03
2022-09-03T18:39:36.902Z,76.67
2022-09-03T18:43:01.468Z,77.83
2022-09-03T18:49:44.184Z,78.33
2022-09-03T18:52:43.426Z,78.77
2022-09-03T18:56:17.773Z,78.69
2022-09-03T18:59:46.962Z,78.95
2022-09-03T19:02:58.445Z,79.33
2022-09-03T19:05:58.469Z,80.44
2022-09-03T19:09:06.184Z,81.16
2022-09-03T19:12:42.265Z,81.00
2022-09-03T19:15:43.345Z,81.02
2022-09-03T19:19:13.309Z,80.07
2022-09-03T19:22:27.049Z,76.65
2022-09-03T19:25:22.649Z,78.34
2022-09-03T19:28:36.350Z,79.72
2022-09-03T19:31:23.124Z,79.19
2022-09-03T19:34:15.658Z,80.29
2022-09-03T19:37:27.350Z,80.78
2022-09-03T19:40:41.603Z,80.98
2022-09-03T19:43:37.686Z,80.30
2022-09-03T19:46:30.014Z,79.71
2022-09-03T19:49:50.307Z,78.94
2022-09-03T19:52:56.714Z,79.11
2022-09-03T19:55:52.847Z,79.00
2022-09-03T19:58:44.390Z,74.97
2022-09-03T20:01:34.108Z,72.76
2022-09-03T20:04:31.599Z,77.67
2022-09-03T20:07:20.559Z,76.54
2022-09-03T20:10:08.895Z,74.35
2022-09-03T20:12:46.014Z,70.50
2022-09-03T20:15:14.364Z,70.05
2022-09-03T20:18:09.982Z,70.42
2022-09-03T20:21:02.457Z,73.03
2022-09-03T20:23:55.894Z,70.82
2022-09-03T20:26:46.030Z,69.43
2022-09-03T20:29:51.696Z,75.21
2022-09-03T20:32:35.152Z,78.17
2022-09-03T20:35:18.411Z,78.97
2022-09-03T20:38:15.860Z,79.36
2022-09-03T20:40:52.025Z,79.32
2022-09-03T20:43:48.176Z,80.35
2022-09-03T20:46:33.080Z,80.94
2022-09-03T20:49:22.258Z,79.94
2022-09-03T20:51:58.825Z,79.04
2022-09-03T20:54:37.412Z,79.43
2022-09-03T20:57:42.082Z,80.86
2022-09-03T21:00:18.822Z,81.76
2022-09-03T21:03:01.552Z,78.33
2022-09-03T21:05:41.689Z,80.09
2022-09-03T21:08:39.551Z,82.15
2022-09-03T21:11:33.937Z,83.16
2022-09-03T21:14:17.087Z,83.04
2022-09-03T21:17:08.421Z,83.73
2022-09-03T21:19:42.669Z,85.03
2022-09-03T21:22:13.570Z,84.02
2022-09-03T21:24:57.235Z,83.28
2022-09-03T21:27:32.890Z,85.38
2022-09-03T21:30:08.057Z,86.29
2022-09-03T21:32:51.674Z,86.90
2022-09-03T21:35:28.517Z,85.45
2022-09-03T21:38:04.155Z,84.29
2022-09-03T21:40:35.339Z,85.23
2022-09-03T21:43:19.865Z,84.55
2022-09-03T21:46:04.882Z,84.34
2022-09-03T21:48:47.783Z,84.90
2022-09-03T21:51:22.260Z,84.46
2022-09-03T21:53:56.154Z,85.23
2022-09-03T21:57:03.727Z,86.53
2022-09-03T21:59:44.827Z,85.72
2022-09-03T22:02:30.303Z,85.25
2022-09-03T22:05:03.841Z,85.45
2022-09-03T22:07:44.631Z,85.03
2022-09-03T22:10:32.175Z,84.93
2022-09-03T22:13:18.136Z,85.01
2022-09-03T22:15:50.483Z,85.70
2022-09-03T22:18:28.873Z,84.77
2022-09-03T22:21:13.507Z,83.90
2022-09-03T22:24:07.705Z,84.08
2022-09-03T22:26:53.923Z,85.61
2022-09-03T22:29:57.038Z,83.31
2022-09-03T22:32:34.102Z,85.11
2022-09-03T22:35:39.248Z,85.74
2022-09-03T22:38:26.971Z,86.03
2022-09-03T22:41:37.219Z,85.11
2022-09-03T22:44:27.074Z,86.30
2022-09-03T22:47:13.350Z,86.27
2022-09-03T22:49:53.198Z,86.27
2022-09-03T22:52:37.954Z,85.67
2022-09-03T22:55:21.117Z,86.06
2022-09-03T22:58:15.979Z,86.75
2022-09-03T23:01:09.888Z,87.07
2022-09-03T23:03:53.476Z,87.03
2022-09-03T23:06:32.729Z,87.27
2022-09-03T23:09:07.678Z,87.08
2022-09-03T23:11:45.647Z,87.11
2022-09-03T23:14:18.996Z,85.33
2022-09-03T23:16:58.406Z,85.35
2022-09-03T23:19:46.070Z,86.35
2022-09-03T23:22:45.145Z,83.97
2022-09-03T23:25:29.270Z,82.07
2022-09-03T23:28:09.911Z,83.86
2022-09-03T23:30:38.046Z,81.92
2022-09-03T23:33:06.234Z,82.45
2022-09-03T23:36:04.208Z,83.47
2022-09-03T23:38:33.707Z,84.69
2022-09-03T23:41:07.315Z,84.55
2022-09-03T23:43:35.748Z,84.15
2022-09-03T23:46:21.991Z,82.18
2022-09-03T23:49:17.687Z,81.39
2022-09-03T23:52:04.198Z,81.42
2022-09-03T23:54:40.271Z,79.62
2022-09-03T23:57:24.838Z,76.70
